Russell, KS (67665)

6:52 AM CDT on July 24, 2016 (GMT -0500)
Ruppenthal Middle School | | Change Station

Elev 1854 ft 38.89 °N, 98.86 °W | Updated 2 minutes ago

Mostly Cloudy
Mostly Cloudy
78.2 °F
Feels Like 80 °F
N
1.0
Wind Variable Wind from SSW
Gusts 7.0 mph

Today
High -- | Low -- °F
--% Chance of Precip.
Yesterday
High -- | Low -- °F
Precip. -- in
Pressure 29.81 in
Visibility 10.0 miles
Clouds Few 5000 ft
Scattered Clouds 9000 ft
Mostly Cloudy 11000 ft
Heat Index 80 °F
Dew Point 67 °F
Humidity 69%
Rainfall 0.00 in
Snow Depth Not available.
6:30 AM 8:53 PM
Waning Gibbous, 77% visible
METAR KRSL 241053Z AUTO 27013KT 10SM FEW050 SCT090 BKN110 26/19 A2988 RMK AO2 WSHFT 1004 LTG DSNT NE RAE51 TSB22E41 SLP093 P0003 T02560194
Pressure 29.81 in
Visibility 10.0 miles
Clouds Few 5000 ft
Scattered Clouds 9000 ft
Mostly Cloudy 11000 ft
Heat Index 80 °F
Dew Point 67 °F
Humidity 69%
Rainfall 0.00 in
Snow Depth Not available.
6:30 AM 8:53 PM
Waning Gibbous, 77% visible
METAR KRSL 241053Z AUTO 27013KT 10SM FEW050 SCT090 BKN110 26/19 A2988 RMK AO2 WSHFT 1004 LTG DSNT NE RAE51 TSB22E41 SLP093 P0003 T02560194

10-Day Weather Forecast

Almanac

Astronomy

Jul. 24, 2016 Rise Set
Actual Time
Civil Twilight
Nautical Twilight
Astronomical Twilight
Moon
Length of Visible Light
Length of Day
Tomorrow will be .
, % of the Moon is Illuminated

Today's Extremes

State Highs State Lows

Community

WunderPhotos

Upload Photos

1,927,049 photos uploaded!

WunderBlog® & News

Nearby

Air Quality

  Air Quality AQ Index Pollutant
Not available.

Snow Depth

Station Depth Elevation

Earthquake Activity

City Distance Mag. Time & Date
Minimum magnitude displayed is 2.5.

Coastal Water Temperatures

Place Temperature

Stations

Nearby Weather Stations

Station Location Temp. Windchill Dew Point Humidity Wind Precip. Elev Updated Type
                   

Watches & Warnings

There are currently no watches in effect.